Accueil
METAR-TAF:

METAR-TAF

Aéroports :

Meiringen, Suisse

latitude: 46-44-25N, longitude: 8-06-36E, altitude: 577 m

Observation

Le bulletin a été fait il y a 45 minutes, à 11:20 UTC
Vent 3 kt de est
Température -2°C
Humidité 74%
Pression 1013 hPa
Visibilité 10 km ou plus
Quelques nuages à une hauteur de 5700 ft
Nuages fragmentés à une hauteur de 7600 ft

METAR: LSMM 201120Z AUTO 08003KT 9999NDV FEW057 BKN076 M02/M06 Q1013 RMK

Heure: 13:05 (12:05 UTC)


TAF: absent

Observations et prévisions météorologiques de plus de 4000 aéroports (messages METAR et TAF).

Les stations disponibles sont représentées par des disques jaunes et rouges sur la carte.

Passer la souris dessus pour voir le nom de la station.

Cliquer dessus pour voir les observations et prévisions météorologiques.

Pour changer de carte: cliquez sur les boutons verts avec une croix noire pour zoomer, sur le bouton vert avec un tiret pour effectuer un zoom arrière, ou sur les flèches vertes pour les cartes adjacentes.


METAR-TAF: